Time;durP1;ratioP1;P1;durP2;ratioP2;P2;SDS_P1;SDS_P2;PMS_P1;PMS_P2;Temp;Humidity;BMP_temperature;BMP_pressure;BME280_temperature;BME280_humidity;BME280_pressure;Samples;Min_cycle;Max_cycle;Signal;HPM_P1;HPM_P2
2022/08/03 00:00:44;;;;;;;;;;;;;;;21.58;76.92;100148.06;1670272;85;20506;-72
2022/08/03 00:03:10;;;;;;;;;;;;;;;21.60;76.91;100147.17;1669831;85;20182;-71
2022/08/03 00:05:37;;;;;;;;;;;;;;;21.62;76.91;100154.40;1671342;85;22073;-72
2022/08/03 00:08:05;;;;;;;;;;;;;;;21.62;76.86;100155.76;1670700;85;20224;-71
2022/08/03 00:10:32;;;;;;;;;;;;;;;21.60;76.83;100148.53;1667383;85;20192;-72
2022/08/03 00:12:58;;;;;;;;;;;;;;;21.59;76.83;100149.10;1677403;85;20204;-72
2022/08/03 00:15:24;;;;;;;;;;;;;;;21.56;76.85;100142.98;1670307;85;20487;-72
2022/08/03 00:17:51;;;;;;;;;;;;;;;21.57;76.86;100145.14;1667133;85;21229;-71
2022/08/03 00:20:18;;;;;;;;;;;;;;;21.55;76.87;100150.89;1670058;85;20268;-72
2022/08/03 00:22:44;;;;;;;;;;;;;;;21.53;76.97;100145.03;1674510;85;20236;-73
2022/08/03 00:25:10;;;;;;;;;;;;;;;21.53;77.03;100145.03;1664500;85;20238;-72
2022/08/03 00:27:37;;;;;;;;;;;;;;;21.53;77.04;100151.25;1670799;85;20202;-73
2022/08/03 00:30:04;;;;;;;;;;;;;;;21.56;77.02;100153.07;1670722;85;21123;-72
2022/08/03 00:32:31;;;;;;;;;;;;;;;21.56;77.07;100146.28;1670763;85;20173;-73
2022/08/03 00:34:57;;;;;;;;;;;;;;;21.57;77.08;100150.00;1671534;85;20215;-72
2022/08/03 00:37:23;;;;;;;;;;;;;;;21.53;77.05;100147.17;1670656;84;20240;-73
2022/08/03 00:39:52;;;;;;;;;;;;;;;21.54;77.13;100146.60;1670477;85;20180;-72
2022/08/03 00:42:18;;;;;;;;;;;;;;;21.56;77.12;100151.14;1671165;85;21322;-72
2022/08/03 00:44:44;;;;;;;;;;;;;;;21.59;77.11;100155.89;1670992;85;20209;-73
2022/08/03 00:47:10;;;;;;;;;;;;;;;21.58;77.07;100152.94;1670263;85;20209;-72
2022/08/03 00:49:38;;;;;;;;;;;;;;;21.59;76.98;100151.03;1663551;85;20206;-72
2022/08/03 00:52:05;;;;;;;;;;;;;;;21.56;76.87;100151.14;1667944;85;20188;-72
2022/08/03 00:54:32;;;;;;;;;;;;;;;21.55;76.80;100161.77;1670472;85;21228;-71
2022/08/03 00:56:58;;;;;;;;;;;;;;;21.52;76.75;100152.39;1670749;85;20188;-73
2022/08/03 00:59:25;;;;;;;;;;;;;;;21.52;76.79;100156.47;1666301;85;20553;-72
2022/08/03 01:01:52;;;;;;;;;;;;;;;21.55;76.84;100157.69;1669855;85;20209;-72
2022/08/03 01:04:19;;;;;;;;;;;;;;;21.55;76.83;100161.77;1670778;85;20172;-73
2022/08/03 01:06:52;;;;;;;;;;;;;;;21.59;76.79;100165.98;1672628;85;21115;-72
2022/08/03 01:09:22;;;;;;;;;;;;;;;21.61;76.84;100159.62;1668551;85;20635;-73
2022/08/03 01:11:58;;;;;;;;;;;;;;;21.62;76.82;100156.58;1668769;85;20210;-72
2022/08/03 01:14:28;;;;;;;;;;;;;;;21.62;76.63;100162.02;1667184;85;20208;-72
2022/08/03 01:17:01;;;;;;;;;;;;;;;21.60;76.43;100158.05;1667999;85;20223;-72
2022/08/03 01:19:53;;;;;;;;;;;;;;;21.57;76.43;100160.87;1667035;85;21567;-72
2022/08/03 01:22:56;;;;;;;;;;;;;;;21.53;76.47;100158.61;1654141;85;20224;-72
2022/08/03 01:25:51;;;;;;;;;;;;;;;21.51;76.56;100164.94;1671568;85;20212;-72
2022/08/03 01:28:54;;;;;;;;;;;;;;;21.53;76.58;100170.84;1663619;85;20180;-71
2022/08/03 01:31:25;;;;;;;;;;;;;;;21.52;76.43;100168.70;1667261;85;20181;-72
2022/08/03 01:33:54;;;;;;;;;;;;;;;21.50;76.41;100164.72;1671446;85;21229;-72
2022/08/03 01:36:22;;;;;;;;;;;;;;;21.47;76.33;100164.83;1665449;85;20169;-72
2022/08/03 01:38:51;;;;;;;;;;;;;;;21.44;76.40;100166.08;1665540;84;20587;-72
2022/08/03 01:41:20;;;;;;;;;;;;;;;21.43;76.45;100168.58;1670333;85;20206;-72
2022/08/03 01:43:48;;;;;;;;;;;;;;;21.41;76.52;100168.91;1676298;85;20165;-72
2022/08/03 01:46:15;;;;;;;;;;;;;;;21.44;76.58;100163.36;1671793;85;21107;-73
2022/08/03 01:48:41;;;;;;;;;;;;;;;21.47;76.57;100166.77;1670515;85;20205;-73
2022/08/03 01:51:08;;;;;;;;;;;;;;;21.46;76.42;100161.11;1671058;85;20527;-72
2022/08/03 01:53:34;;;;;;;;;;;;;;;21.49;76.43;100167.22;1675869;84;20157;-72
2022/08/03 01:56:00;;;;;;;;;;;;;;;21.50;76.45;100163.37;1672037;85;20194;-72
2022/08/03 01:58:26;;;;;;;;;;;;;;;21.52;76.45;100167.34;1671733;85;21123;-72
2022/08/03 02:00:54;;;;;;;;;;;;;;;21.51;76.35;100160.87;1670445;85;20224;-72
2022/08/03 02:03:21;;;;;;;;;;;;;;;21.50;76.35;100161.44;1645905;85;20151;-72
2022/08/03 02:05:47;;;;;;;;;;;;;;;21.46;76.45;100165.19;1671323;85;20174;-72
2022/08/03 02:08:13;;;;;;;;;;;;;;;21.43;76.56;100161.78;1662926;85;20191;-72
2022/08/03 02:10:41;;;;;;;;;;;;;;;21.44;76.59;100167.44;1670859;85;21288;-71
2022/08/03 02:13:08;;;;;;;;;;;;;;;21.44;76.57;100169.58;1662380;85;20489;-72
2022/08/03 02:15:35;;;;;;;;;;;;;;;21.45;76.54;100165.72;1668935;85;20213;-71
2022/08/03 02:18:02;;;;;;;;;;;;;;;21.44;76.57;100168.80;1671547;85;20152;-71
2022/08/03 02:20:30;;;;;;;;;;;;;;;21.41;76.68;100169.47;1672764;84;20177;-71
2022/08/03 02:22:57;;;;;;;;;;;;;;;21.43;76.69;100168.01;1671932;85;21262;-71
2022/08/03 02:25:23;;;;;;;;;;;;;;;21.43;76.69;100165.29;1671004;85;20429;-71
2022/08/03 02:28:06;;;;;;;;;;;;;;;21.42;76.73;100168.33;1670813;85;20145;-71
2022/08/03 02:30:38;;;;;;;;;;;;;;;21.42;76.75;100168.33;1668734;85;20447;-72
2022/08/03 02:33:06;;;;;;;;;;;;;;;21.40;76.78;100162.46;1670749;85;20239;-71
2022/08/03 02:35:33;;;;;;;;;;;;;;;21.36;76.87;100159.63;1671388;85;21240;-73
2022/08/03 02:38:01;;;;;;;;;;;;;;;21.35;76.96;100158.03;1646821;85;20173;-72
2022/08/03 02:40:28;;;;;;;;;;;;;;;21.30;77.01;100156.88;1671322;84;20145;-71
2022/08/03 02:42:57;;;;;;;;;;;;;;;21.27;77.09;100150.20;1669875;85;20275;-72
2022/08/03 02:45:23;;;;;;;;;;;;;;;21.25;77.15;100156.52;1669999;85;20142;-72
2022/08/03 02:47:49;;;;;;;;;;;;;;;21.21;77.25;100149.39;1670409;85;21274;-73
2022/08/03 02:50:16;;;;;;;;;;;;;;;21.20;77.26;100152.69;1670789;85;20162;-73
2022/08/03 02:52:42;;;;;;;;;;;;;;;21.17;77.34;100156.64;1670819;84;20184;-72
2022/08/03 02:55:08;;;;;;;;;;;;;;;21.17;77.44;100160.72;1623417;85;20185;-73
2022/08/03 02:57:35;;;;;;;;;;;;;;;21.20;77.50;100154.04;1670958;85;20165;-71
2022/08/03 03:00:02;;;;;;;;;;;;;;;21.20;77.51;100163.55;1668016;85;22263;-72
2022/08/03 03:02:28;;;;;;;;;;;;;;;21.19;77.48;100161.97;1670129;85;20205;-72
2022/08/03 03:04:55;;;;;;;;;;;;;;;21.20;77.50;100162.19;1670028;85;20447;-71
2022/08/03 03:07:21;;;;;;;;;;;;;;;21.18;77.48;100161.72;1671392;85;20137;-72
2022/08/03 03:09:48;;;;;;;;;;;;;;;21.18;77.54;100164.44;1673351;85;20219;-71
2022/08/03 03:12:14;;;;;;;;;;;;;;;21.18;77.45;100164.44;1673445;85;21867;-72
2022/08/03 03:14:40;;;;;;;;;;;;;;;21.16;77.46;100169.44;1672482;85;20244;-72
2022/08/03 03:17:07;;;;;;;;;;;;;;;21.16;77.44;100174.05;1669899;85;20212;-72
2022/08/03 03:19:33;;;;;;;;;;;;;;;21.15;77.43;100171.90;1672952;85;20145;-72
2022/08/03 03:22:00;;;;;;;;;;;;;;;;;;1673836;85;20225;-72
2022/08/03 03:24:27;;;;;;;;;;;;;;;21.12;77.41;100179.93;1676021;84;21163;-73
2022/08/03 03:26:54;;;;;;;;;;;;;;;21.11;77.38;100180.50;1675535;85;20258;-72
2022/08/03 03:29:20;;;;;;;;;;;;;;;21.12;77.45;100182.64;1672927;85;20472;-73
2022/08/03 03:31:47;;;;;;;;;;;;;;;21.13;77.49;100176.89;1679089;85;20192;-72
2022/08/03 03:34:13;;;;;;;;;;;;;;;21.15;77.45;100177.90;1672402;85;20247;-72
2022/08/03 03:36:39;;;;;;;;;;;;;;;21.18;77.37;100175.30;1671713;85;21239;-72
2022/08/03 03:39:05;;;;;;;;;;;;;;;21.16;77.39;100181.66;1672033;85;20298;-70
2022/08/03 03:41:32;;;;;;;;;;;;;;;21.17;77.30;100187.88;1668304;85;20448;-73
2022/08/03 03:43:58;;;;;;;;;;;;;;;21.17;77.16;100195.45;1673293;85;20142;-73
2022/08/03 03:46:24;;;;;;;;;;;;;;;21.20;77.09;100194.78;1670411;85;20153;-73
2022/08/03 03:48:50;;;;;;;;;;;;;;;21.22;76.96;100200.68;1673060;84;21114;-74
2022/08/03 03:51:17;;;;;;;;;;;;;;;21.22;76.94;100201.22;1668458;85;20437;-72
2022/08/03 03:53:59;;;;;;;;;;;;;;;21.26;76.86;100207.59;1662643;86;20154;-72
2022/08/03 03:56:26;;;;;;;;;;;;;;;21.27;76.74;100207.80;1672636;85;20448;-72
2022/08/03 03:58:52;;;;;;;;;;;;;;;21.34;76.60;100204.53;1671950;85;20152;-73
2022/08/03 04:01:18;;;;;;;;;;;;;;;21.35;76.55;100204.78;1672313;85;21542;-73
2022/08/03 04:03:45;;;;;;;;;;;;;;;21.37;76.33;100211.47;1671108;85;20181;-72
2022/08/03 04:10:57;;;;;;;;;;;;;;;21.38;76.26;100211.69;1669874;85;20212;-73
2022/08/03 04:11:29;;;;;;;;;;;;;;;21.41;75.99;100210.22;1663943;85;20211;-72
2022/08/03 04:14:13;;;;;;;;;;;;;;;21.39;75.89;100217.91;1672470;85;21119;-72
2022/08/03 04:16:49;;;;;;;;;;;;;;;21.40;75.86;100216.80;1675712;85;20181;-73
2022/08/03 04:19:25;;;;;;;;;;;;;;;21.38;75.79;100215.77;1671759;85;20233;-73
2022/08/03 04:21:53;;;;;;;;;;;;;;;21.38;75.78;100209.54;1670304;85;20149;-73
2022/08/03 04:24:20;;;;;;;;;;;;;;;21.36;75.83;100215.90;1671303;85;20217;-73
2022/08/03 04:26:46;;;;;;;;;;;;;;;21.31;75.84;100220.36;1670827;85;21157;-72
2022/08/03 04:29:12;;;;;;;;;;;;;;;21.33;75.88;100220.05;1669442;85;20536;-73
2022/08/03 04:31:39;;;;;;;;;;;;;;;21.38;75.77;100217.13;1670655;85;20425;-72
2022/08/03 04:34:05;;;;;;;;;;;;;;;21.40;75.64;100213.52;1668620;85;20213;-73
2022/08/03 04:36:33;;;;;;;;;;;;;;;21.40;75.58;100218.16;1669367;85;20503;-73
2022/08/03 04:39:06;;;;;;;;;;;;;;;21.40;75.50;100211.36;1671095;85;21868;-72
2022/08/03 04:41:32;;;;;;;;;;;;;;;21.37;75.38;100218.27;1666151;85;20194;-71
2022/08/03 04:43:59;;;;;;;;;;;;;;;21.41;75.25;100231.96;1670914;84;20244;-72
2022/08/03 04:46:27;;;;;;;;;;;;;;;21.41;75.11;100228.67;1668225;85;20156;-74
2022/08/03 04:48:53;;;;;;;;;;;;;;;21.38;75.14;100223.13;1672832;85;20256;-72
2022/08/03 04:51:19;;;;;;;;;;;;;;;21.43;75.08;100230.50;1672737;85;21306;-72
2022/08/03 04:53:46;;;;;;;;;;;;;;;21.44;74.95;100238.87;1670052;85;20199;-72
2022/08/03 04:56:12;;;;;;;;;;;;;;;21.46;74.83;100228.47;1672987;85;20133;-72
2022/08/03 04:58:38;;;;;;;;;;;;;;;21.49;74.84;100231.08;1663143;85;20141;-72
2022/08/03 05:01:04;;;;;;;;;;;;;;;21.53;74.65;100219.75;1669878;85;20245;-72
2022/08/03 05:03:32;;;;;;;;;;;;;;;21.56;74.59;100215.58;1669966;85;21162;-73
2022/08/03 05:05:58;;;;;;;;;;;;;;;21.64;74.28;100222.23;1671655;84;20180;-73
2022/08/03 05:08:25;;;;;;;;;;;;;;;21.65;74.07;100215.69;1670568;85;20495;-72
2022/08/03 05:10:51;;;;;;;;;;;;;;;21.68;73.99;100216.91;1669971;84;20161;-72
2022/08/03 05:13:18;;;;;;;;;;;;;;;21.76;73.70;100211.38;1671460;85;20156;-72
2022/08/03 05:15:45;;;;;;;;;;;;;;;21.77;73.57;100214.88;1670820;85;21170;-72
2022/08/03 05:18:11;;;;;;;;;;;;;;;21.83;73.35;100216.23;1669920;84;20628;-73
2022/08/03 05:20:37;;;;;;;;;;;;;;;21.93;73.51;100221.78;1669533;85;20427;-72
2022/08/03 05:23:03;;;;;;;;;;;;;;;22.00;73.35;100222.00;1671353;85;20179;-72
2022/08/03 05:25:31;;;;;;;;;;;;;;;22.09;73.10;100218.59;1666847;84;20176;-73
2022/08/03 05:27:57;;;;;;;;;;;;;;;22.15;72.67;100228.14;1669769;85;21150;-72
2022/08/03 05:30:23;;;;;;;;;;;;;;;22.17;72.38;100227.21;1668978;85;20200;-72
2022/08/03 05:32:50;;;;;;;;;;;;;;;22.20;72.02;100229.81;1667214;85;20296;-71
2022/08/03 05:35:16;;;;;;;;;;;;;;;22.21;71.62;100236.30;1668199;84;20511;-72
2022/08/03 05:37:42;;;;;;;;;;;;;;;22.20;71.35;100229.81;1668105;85;20315;-72
2022/08/03 05:40:09;;;;;;;;;;;;;;;22.23;71.27;100242.16;1666504;85;21862;-71
2022/08/03 05:42:39;;;;;;;;;;;;;;;22.30;71.20;100248.95;1671603;85;20149;-73
2022/08/03 05:45:17;;;;;;;;;;;;;;;22.32;70.70;100252.92;1670478;85;20158;-72
2022/08/03 05:47:43;;;;;;;;;;;;;;;22.30;70.49;100256.55;1668985;85;20207;-72
2022/08/03 05:50:13;;;;;;;;;;;;;;;22.28;70.44;100263.46;1670425;85;20169;-73
2022/08/03 05:52:40;;;;;;;;;;;;;;;22.22;70.43;100264.28;1672759;85;20660;-72
2022/08/03 05:55:07;;;;;;;;;;;;;;;22.21;70.45;100264.04;1667683;85;20466;-73
2022/08/03 05:57:33;;;;;;;;;;;;;;;22.19;70.58;100261.67;1671620;85;20452;-72
2022/08/03 06:00:01;;;;;;;;;;;;;;;22.26;70.64;100264.39;1671842;85;20232;-72
2022/08/03 06:02:31;;;;;;;;;;;;;;;22.31;70.60;100260.87;1668350;84;20195;-72
2022/08/03 06:04:57;;;;;;;;;;;;;;;22.40;70.62;100253.92;1665530;84;21288;-72
2022/08/03 06:07:23;;;;;;;;;;;;;;;22.57;70.71;100261.02;1671407;85;20193;-72
2022/08/03 06:09:52;;;;;;;;;;;;;;;22.68;70.03;100258.05;1669748;84;20510;-73
2022/08/03 06:12:19;;;;;;;;;;;;;;;22.79;69.78;100252.32;1669327;85;20213;-73
2022/08/03 06:14:45;;;;;;;;;;;;;;;22.91;69.31;100256.94;1672969;85;20508;-73
2022/08/03 06:17:11;;;;;;;;;;;;;;;22.97;68.92;100254.22;1670414;85;21128;-73
2022/08/03 06:19:38;;;;;;;;;;;;;;;23.05;68.58;100249.75;1671202;85;20145;-73
2022/08/03 06:22:04;;;;;;;;;;;;;;;23.12;68.37;100243.91;1669968;84;20651;-73
2022/08/03 06:24:31;;;;;;;;;;;;;;;23.18;68.09;100253.41;1663050;85;20247;-71
2022/08/03 06:26:58;;;;;;;;;;;;;;;23.24;67.93;100254.53;1658267;85;20205;-71
2022/08/03 06:29:24;;;;;;;;;;;;;;;23.32;67.56;100249.47;1667786;85;21715;-73
2022/08/03 06:31:50;;;;;;;;;;;;;;;23.39;67.23;100254.52;1670788;84;20185;-74
2022/08/03 06:34:17;;;;;;;;;;;;;;;23.47;67.09;100247.91;1671001;85;20169;-72
2022/08/03 06:36:43;;;;;;;;;;;;;;;23.54;66.69;100248.88;1671858;84;20274;-72
2022/08/03 06:39:11;;;;;;;;;;;;;;;23.63;66.71;100248.13;1669540;85;20372;-73
2022/08/03 06:41:38;;;;;;;;;;;;;;;23.69;65.97;100250.05;1670963;84;21841;-72
2022/08/03 06:44:06;;;;;;;;;;;;;;;23.72;65.66;100249.90;1671436;85;20141;-72
2022/08/03 06:46:32;;;;;;;;;;;;;;;23.82;65.72;100247.45;1670279;84;20166;-73
2022/08/03 06:48:59;;;;;;;;;;;;;;;23.88;65.20;100249.31;1667774;84;20159;-73
2022/08/03 06:51:25;;;;;;;;;;;;;;;23.90;64.77;100251.13;1672551;85;20460;-73
2022/08/03 06:53:51;;;;;;;;;;;;;;;23.91;64.77;100247.24;1654057;85;21494;-73
2022/08/03 06:56:19;;;;;;;;;;;;;;;23.93;64.92;100249.05;1670054;85;20755;-74
2022/08/03 06:58:46;;;;;;;;;;;;;;;24.05;64.96;100250.31;1670856;84;20190;-73
2022/08/03 07:01:12;;;;;;;;;;;;;;;24.15;64.79;100253.62;1667032;85;20196;-73
2022/08/03 07:03:39;;;;;;;;;;;;;;;24.27;64.61;100250.77;1669957;85;20229;-75
2022/08/03 07:06:06;;;;;;;;;;;;;;;24.40;64.01;100254.95;1671588;84;21793;-73
2022/08/03 07:08:33;;;;;;;;;;;;;;;24.50;63.36;100253.63;1668196;85;20573;-75
2022/08/03 07:10:59;;;;;;;;;;;;;;;24.58;63.43;100254.02;1670014;84;20145;-75
2022/08/03 07:13:25;;;;;;;;;;;;;;;24.67;63.29;100246.95;1555012;84;10000324;-76
2022/08/03 07:15:51;;;;;;;;;;;;;;;24.87;63.75;100247.73;1670374;85;21513;-75
2022/08/03 07:18:18;;;;;;;;;;;;;;;25.13;63.15;100242.98;1670768;85;20567;-77
2022/08/03 07:20:44;;;;;;;;;;;;;;;25.31;62.08;100242.73;1664247;85;20184;-76
2022/08/03 07:23:10;;;;;;;;;;;;;;;25.47;60.96;100248.86;1669315;85;20379;-75
2022/08/03 07:25:36;;;;;;;;;;;;;;;25.61;60.96;100257.87;1667906;85;20252;-75
2022/08/03 07:28:03;;;;;;;;;;;;;;;25.77;59.96;100250.12;1670305;84;21727;-78
2022/08/03 07:30:29;;;;;;;;;;;;;;;25.84;59.22;100263.34;1667301;85;20204;-79
2022/08/03 07:32:56;;;;;;;;;;;;;;;25.89;59.14;100262.23;1670476;85;20192;-75
2022/08/03 07:35:22;;;;;;;;;;;;;;;25.94;58.58;100273.66;1669373;85;20229;-77
2022/08/03 07:37:49;;;;;;;;;;;;;;;25.94;58.32;100262.72;1671678;85;20172;-75
2022/08/03 07:40:16;;;;;;;;;;;;;;;25.98;58.52;100268.24;1672338;85;21210;-76
2022/08/03 07:42:43;;;;;;;;;;;;;;;26.03;58.66;100265.75;1666496;85;20165;-77
2022/08/03 07:45:09;;;;;;;;;;;;;;;26.12;58.48;100273.12;1671877;85;20213;-78
2022/08/03 07:47:36;;;;;;;;;;;;;;;26.16;58.24;100264.41;1653628;85;20232;-76
2022/08/03 07:50:03;;;;;;;;;;;;;;;26.16;58.04;100268.52;1669997;85;20175;-76
2022/08/03 07:52:48;;;;;;;;;;;;;;;26.19;58.04;100268.56;1630860;85;21099;-75
2022/08/03 07:55:17;;;;;;;;;;;;;;;26.30;57.88;100271.44;1652803;85;20530;-76
2022/08/03 07:57:43;;;;;;;;;;;;;;;26.43;57.88;100260.47;1667147;85;20137;-75
2022/08/03 08:00:15;;;;;;;;;;;;;;;26.54;57.39;100262.00;1673267;85;20184;-76
2022/08/03 08:02:41;;;;;;;;;;;;;;;26.70;57.65;100268.66;1665905;85;20506;-78
2022/08/03 08:05:09;;;;;;;;;;;;;;;26.87;57.39;100270.80;1660567;85;21278;-77
2022/08/03 08:07:37;;;;;;;;;;;;;;;26.99;56.44;100267.03;1660521;85;20224;-76
2022/08/03 08:10:06;;;;;;;;;;;;;;;27.06;56.51;100270.42;1671680;85;20200;-77
2022/08/03 08:12:32;;;;;;;;;;;;;;;27.16;56.52;100269.77;1657965;85;20192;-78
2022/08/03 08:14:58;;;;;;;;;;;;;;;27.28;56.44;100268.73;1657565;85;20158;-79
2022/08/03 08:17:24;;;;;;;;;;;;;;;27.49;56.21;100272.23;1668064;85;21130;-75
2022/08/03 08:19:51;;;;;;;;;;;;;;;27.61;55.74;100274.70;1670097;84;20192;-75
2022/08/03 08:22:18;;;;;;;;;;;;;;;27.68;55.17;100271.23;1666721;85;20246;-77
2022/08/03 08:24:47;;;;;;;;;;;;;;;27.70;54.85;100273.77;1670580;85;20201;-77
2022/08/03 08:27:12;;;;;;;;;;;;;;;27.81;54.73;100271.16;1671341;85;20204;-77
2022/08/03 08:29:38;;;;;;;;;;;;;;;27.97;53.51;100281.83;1670570;85;20947;-78
2022/08/03 08:32:05;;;;;;;;;;;;;;;28.09;53.20;100278.00;1668414;85;20541;-77
2022/08/03 08:34:31;;;;;;;;;;;;;;;28.19;52.80;100279.43;1671429;85;20208;-80
2022/08/03 08:36:58;;;;;;;;;;;;;;;28.32;52.61;100279.90;1663015;85;20200;-78
2022/08/03 08:39:24;;;;;;;;;;;;;;;28.40;52.49;100283.52;1667161;85;20236;-77
2022/08/03 08:41:51;;;;;;;;;;;;;;;28.44;52.13;100285.10;1666977;85;21119;-78
2022/08/03 08:44:17;;;;;;;;;;;;;;;28.39;52.02;100284.64;1671054;85;20507;-77
2022/08/03 08:46:43;;;;;;;;;;;;;;;28.28;51.95;100291.46;1668964;85;20149;-76
2022/08/03 08:49:09;;;;;;;;;;;;;;;28.20;51.89;100285.15;1672044;85;20542;-77
2022/08/03 08:51:37;;;;;;;;;;;;;;;28.18;52.41;100288.85;1670239;85;20192;-77
2022/08/03 08:54:03;;;;;;;;;;;;;;;28.18;52.22;100287.48;1670469;85;21195;-77
2022/08/03 08:56:29;;;;;;;;;;;;;;;28.16;52.91;100287.06;1672954;85;20459;-78
2022/08/03 08:58:57;;;;;;;;;;;;;;;28.22;52.80;100297.11;1673867;85;20255;-78
2022/08/03 09:01:24;;;;;;;;;;;;;;;28.27;52.76;100296.17;1664910;85;20212;-76
2022/08/03 09:03:52;;;;;;;;;;;;;;;28.31;52.87;100287.16;1673021;85;20204;-77
2022/08/03 09:06:21;;;;;;;;;;;;;;;28.36;53.05;100287.56;1670700;85;20342;-77
2022/08/03 09:08:47;;;;;;;;;;;;;;;28.43;52.62;100290.41;1672769;85;20150;-78
2022/08/03 09:11:14;;;;;;;;;;;;;;;28.32;51.89;100277.75;1673140;85;20158;-76
2022/08/03 09:13:40;;;;;;;;;;;;;;;28.22;52.56;100289.66;1673743;85;20456;-76
2022/08/03 09:16:18;;;;;;;;;;;;;;;28.26;52.42;100286.33;1672038;85;20137;-77
2022/08/03 09:18:46;;;;;;;;;;;;;;;28.33;52.55;100277.94;1669571;84;21189;-78
2022/08/03 09:21:25;;;;;;;;;;;;;;;28.43;52.77;100285.47;1673601;85;20146;-77
2022/08/03 09:23:55;;;;;;;;;;;;;;;28.52;52.39;100279.05;1668420;85;20444;-77
2022/08/03 09:26:26;;;;;;;;;;;;;;;28.51;51.93;100282.97;1671775;85;20158;-77
2022/08/03 09:29:04;;;;;;;;;;;;;;;28.41;52.13;100280.38;1555970;84;10000412;-76
2022/08/03 09:31:34;;;;;;;;;;;;;;;28.32;52.39;100280.48;1673194;85;20220;-76
2022/08/03 09:34:03;;;;;;;;;;;;;;;28.16;52.66;100280.20;1672295;85;20176;-74
2022/08/03 09:36:43;;;;;;;;;;;;;;;27.96;53.15;100285.76;1671395;85;20529;-72
2022/08/03 09:39:11;;;;;;;;;;;;;;;27.70;54.90;100295.72;1671643;85;20169;-71
2022/08/03 09:41:39;;;;;;;;;;;;;;;27.31;56.84;100300.84;1671564;85;21147;-70
2022/08/03 09:44:05;;;;;;;;;;;;;;;26.93;58.47;100305.52;1667472;85;20210;-70
2022/08/03 09:46:51;;;;;;;;;;;;;;;26.61;59.63;100314.71;1665589;85;20185;-70
2022/08/03 09:49:18;;;;;;;;;;;;;;;26.23;60.30;100313.78;1671571;85;20598;-71
2022/08/03 09:51:44;;;;;;;;;;;;;;;25.87;60.67;100308.34;1653021;85;20678;-71
2022/08/03 09:54:11;;;;;;;;;;;;;;;25.64;61.33;100309.70;1671509;85;21651;-71
2022/08/03 09:56:43;;;;;;;;;;;;;;;25.44;62.08;100315.22;1658610;85;20169;-70
2022/08/03 09:59:10;;;;;;;;;;;;;;;25.33;62.96;100319.68;1670078;85;20145;-71
2022/08/03 10:01:40;;;;;;;;;;;;;;;25.25;63.63;100324.81;1670374;85;20188;-71
2022/08/03 10:04:07;;;;;;;;;;;;;;;25.27;64.44;100327.95;1673550;85;20166;-70
2022/08/03 10:06:34;;;;;;;;;;;;;;;25.45;65.73;100321.47;1673041;85;21194;-70
2022/08/03 10:09:12;;;;;;;;;;;;;;;25.76;66.81;100324.53;1673519;85;20299;-70
2022/08/03 10:11:40;;;;;;;;;;;;;;;26.10;66.53;100320.62;1668477;84;20155;-71
2022/08/03 10:14:08;;;;;;;;;;;;;;;26.46;65.83;100314.30;1544554;85;9999904;-71
2022/08/03 10:16:38;;;;;;;;;;;;;;;26.72;65.62;100311.55;1675759;84;21139;-71
2022/08/03 10:19:06;;;;;;;;;;;;;;;26.94;64.70;100314.53;1671922;85;20206;-69
2022/08/03 10:21:34;;;;;;;;;;;;;;;27.06;63.71;100309.59;1671479;85;20141;-70
2022/08/03 10:24:05;;;;;;;;;;;;;;;27.20;63.15;100312.30;1666579;85;20212;-70
2022/08/03 10:26:37;;;;;;;;;;;;;;;27.34;62.65;100313.25;1669527;85;20169;-70
2022/08/03 10:29:07;;;;;;;;;;;;;;;27.57;62.14;100306.78;1670847;85;21798;-71
2022/08/03 10:31:40;;;;;;;;;;;;;;;27.80;62.33;100300.53;1670451;85;20177;-71
2022/08/03 10:34:10;;;;;;;;;;;;;;;27.98;59.57;100311.66;1670531;85;20208;-70
2022/08/03 10:36:37;;;;;;;;;;;;;;;28.08;58.92;100291.53;1654689;85;20627;-70
2022/08/03 10:39:03;;;;;;;;;;;;;;;28.19;58.50;100292.38;1670211;85;20200;-71
2022/08/03 10:41:31;;;;;;;;;;;;;;;28.26;58.22;100289.08;1662609;85;21131;-70
2022/08/03 10:44:04;;;;;;;;;;;;;;;28.36;57.93;100287.56;1669841;85;20205;-71
2022/08/03 10:46:31;;;;;;;;;;;;;;;28.41;56.46;100292.73;1667383;85;20258;-72
2022/08/03 10:48:57;;;;;;;;;;;;;;;28.40;56.97;100285.68;1668019;85;20176;-72
2022/08/03 10:51:24;;;;;;;;;;;;;;;28.41;56.30;100291.95;1670972;85;20609;-72
2022/08/03 10:53:50;;;;;;;;;;;;;;;28.39;55.93;100290.14;1669354;85;21490;-71
2022/08/03 10:59:40;;;;;;;;;;;;;;;28.33;55.17;100276.56;1673355;85;20153;-71
2022/08/03 11:02:08;;;;;;;;;;;;;;;28.24;55.40;100281.05;1654964;85;20482;-72
2022/08/03 11:04:36;;;;;;;;;;;;;;;28.15;55.42;100273.14;1665735;85;20165;-71
2022/08/03 11:07:21;;;;;;;;;;;;;;;28.16;55.40;100280.78;1663533;85;21177;-71
2022/08/03 11:09:52;;;;;;;;;;;;;;;28.23;55.72;100269.84;1670683;85;20220;-71
2022/08/03 11:12:25;;;;;;;;;;;;;;;28.27;55.27;100267.33;1664632;85;20518;-72
2022/08/03 11:14:51;;;;;;;;;;;;;;;28.25;55.40;100260.05;1671659;85;20149;-72
2022/08/03 11:17:17;;;;;;;;;;;;;;;28.25;55.15;100255.93;1664184;85;20231;-72
2022/08/03 11:19:49;;;;;;;;;;;;;;;28.23;55.40;100261.04;1667977;85;21200;-72
2022/08/03 11:22:17;;;;;;;;;;;;;;;28.18;55.77;100264.13;1671038;85;20240;-72
2022/08/03 11:27:33;;;;;;;;;;;;;;;28.20;54.78;100269.23;1623955;78;10000361;-75
2022/08/03 11:30:03;;;;;;;;;;;;;;;28.24;52.83;100262.61;1785325;80;21083;-73
2022/08/03 11:32:42;;;;;;;;;;;;;;;28.31;49.08;100252.24;1789151;80;20238;-71
2022/08/03 11:35:14;;;;;;;;;;;;;;;28.47;49.23;100251.95;1786021;79;20312;-74
2022/08/03 11:38:04;;;;;;;;;;;;;;;28.70;48.50;100248.31;1788278;79;20218;-72
2022/08/03 11:40:46;;;;;;;;;;;;;;;28.90;48.60;100251.52;1784596;80;20528;-73
2022/08/03 11:43:36;;;;;;;;;;;;;;;29.07;47.44;100251.97;1793628;79;21185;-73
2022/08/03 11:46:05;;;;;;;;;;;;;;;29.12;46.50;100244.70;1781116;79;20201;-73
2022/08/03 11:48:42;;;;;;;;;;;;;;;29.26;46.40;100242.58;1777197;79;20194;-75
2022/08/03 11:51:24;;;;;;;;;;;;;;;29.42;46.25;100236.09;1777703;79;20166;-75
2022/08/03 11:53:55;;;;;;;;;;;;;;;29.54;46.35;100234.30;1786424;79;20203;-73
2022/08/03 11:56:21;;;;;;;;;;;;;;;29.60;46.10;100232.77;1784939;80;21207;-73
2022/08/03 11:58:52;;;;;;;;;;;;;;;29.57;46.57;100236.27;1785460;79;20344;-76
2022/08/03 12:01:17;;;;;;;;;;;;;;;29.46;46.26;100234.13;1784540;79;20224;-75
2022/08/03 12:03:43;;;;;;;;;;;;;;;29.28;46.32;100240.20;1792372;78;20195;-74
2022/08/03 12:06:11;;;;;;;;;;;;;;;29.25;47.42;100241.76;1797359;79;20608;-74
2022/08/03 12:08:40;;;;;;;;;;;;;;;29.23;47.52;100247.48;1782329;79;21682;-73
2022/08/03 12:11:08;;;;;;;;;;;;;;;29.03;47.20;100247.84;1788155;79;20191;-74
2022/08/03 12:13:48;;;;;;;;;;;;;;;28.65;48.40;100246.52;1784546;80;20265;-74
2022/08/03 12:16:19;;;;;;;;;;;;;;;28.26;49.27;100253.38;1774340;80;20208;-74
2022/08/03 12:19:00;;;;;;;;;;;;;;;27.96;50.15;100248.70;1791222;79;20671;-77
2022/08/03 12:21:27;;;;;;;;;;;;;;;27.87;50.95;100256.47;1789651;80;21106;-72
2022/08/03 12:24:01;;;;;;;;;;;;;;;27.97;48.85;100255.75;1789266;79;20245;-73
2022/08/03 12:26:29;;;;;;;;;;;;;;;28.15;49.06;100258.63;1783093;79;20234;-72
2022/08/03 12:28:56;;;;;;;;;;;;;;;28.38;50.31;100254.23;1789681;80;20206;-75
2022/08/03 12:31:22;;;;;;;;;;;;;;;28.58;50.15;100247.28;1786376;79;20209;-75
2022/08/03 12:34:05;;;;;;;;;;;;;;;28.60;49.36;100250.44;1780451;79;21118;-75
2022/08/03 12:36:34;;;;;;;;;;;;;;;28.69;49.14;100251.44;1790543;79;21028;-73
2022/08/03 12:39:05;;;;;;;;;;;;;;;28.79;48.94;100253.42;1790544;79;20289;-75
2022/08/03 12:41:34;;;;;;;;;;;;;;;28.92;48.38;100247.80;1789539;79;20529;-75
2022/08/03 12:44:04;;;;;;;;;;;;;;;29.05;47.27;100242.72;1790594;79;20236;-75
2022/08/03 12:46:39;;;;;;;;;;;;;;;29.05;47.24;100236.44;1790569;79;21147;-75
2022/08/03 12:49:11;;;;;;;;;;;;;;;29.01;47.70;100237.03;1780279;80;20147;-74
2022/08/03 12:51:45;;;;;;;;;;;;;;;29.06;47.03;100225.66;1784795;79;20154;-74
2022/08/03 12:54:21;;;;;;;;;;;;;;;29.20;47.46;100228.41;1787678;79;20156;-73